Isle of Scalpay, United Kingdom
Current Conditions -  °F | °C
As of 1:50 PM on Saturday 20 Dec 2014 (Local Time) from EGPO Reporting Station
Rain Showers Rain Showers  
Wind Chill: 39°   Ceiling: Unl
Heat Index: 45°   Visibility: 6mi
Dew Point: 36°   Wind: 10mph
Humidity: 71%   Direction: 270°W
Pressure: 30.06"   Gusts: NA
Location:  57.87°N, 6.7°W
Report Text: EGPO 201350Z 27009KT 9999 VCSH FEW020 SCT040 07/02 Q1018
Loading
Personal Weather Stations






























Interactive Weather Map New forecast layout! Learn more

10-Day Weather Forecast

Advertisements
Track Severe Weather on mobile